createdAt,value
2017-09-13T00:00:28.627Z,73.20
2017-09-13T00:02:59.088Z,73.50
2017-09-13T00:05:30.281Z,73.30
2017-09-13T00:08:01.027Z,73.20
2017-09-13T00:10:31.672Z,73.00
2017-09-13T00:13:02.203Z,73.10
2017-09-13T00:15:32.603Z,73.40
2017-09-13T00:18:03.171Z,73.20
2017-09-13T00:20:33.611Z,73.10
2017-09-13T00:23:04.098Z,73.30
2017-09-13T00:25:34.527Z,73.40
2017-09-13T00:28:05.052Z,73.30
2017-09-13T00:30:35.568Z,73.30
2017-09-13T00:33:06.127Z,73.40
2017-09-13T00:35:36.634Z,73.30
2017-09-13T00:38:07.159Z,73.30
2017-09-13T00:40:37.732Z,73.30
2017-09-13T00:43:08.198Z,73.40
2017-09-13T00:45:38.668Z,73.40
2017-09-13T00:48:09.384Z,73.50
2017-09-13T00:50:40.735Z,73.40
2017-09-13T00:53:23.342Z,73.30
2017-09-13T00:56:07.345Z,73.40
2017-09-13T00:58:51.968Z,73.60
2017-09-13T01:01:23.927Z,73.60
2017-09-13T01:03:54.425Z,73.70
2017-09-13T01:06:25.273Z,73.70
2017-09-13T01:08:55.800Z,73.90
2017-09-13T01:11:26.232Z,73.70
2017-09-13T01:13:56.861Z,73.80
2017-09-13T01:16:27.284Z,73.80
2017-09-13T01:18:58.040Z,73.90
2017-09-13T01:21:28.563Z,73.90
2017-09-13T01:23:59.092Z,73.70
2017-09-13T01:26:29.698Z,73.70
2017-09-13T01:29:00.380Z,73.90
2017-09-13T01:31:31.005Z,73.60
2017-09-13T01:34:01.531Z,73.90
2017-09-13T01:36:33.030Z,73.80
2017-09-13T01:39:03.473Z,73.80
2017-09-13T01:41:33.895Z,73.80
2017-09-13T01:44:04.440Z,73.80
2017-09-13T01:46:35.084Z,73.80
2017-09-13T01:49:05.662Z,73.90
2017-09-13T01:51:36.064Z,73.60
2017-09-13T01:54:08.129Z,73.60
2017-09-13T01:56:38.657Z,73.60
2017-09-13T01:59:09.105Z,73.70
2017-09-13T02:01:39.653Z,73.60
2017-09-13T02:04:10.146Z,73.40
2017-09-13T02:06:40.675Z,73.60
2017-09-13T02:09:11.306Z,73.60
2017-09-13T02:11:41.649Z,73.60
2017-09-13T02:14:12.848Z,73.50
2017-09-13T02:16:43.404Z,73.50
2017-09-13T02:19:13.936Z,73.50
2017-09-13T02:21:44.419Z,73.60
2017-09-13T02:24:14.975Z,73.60
2017-09-13T02:26:45.490Z,73.70
2017-09-13T02:29:16.028Z,73.60
2017-09-13T02:31:46.657Z,73.50
2017-09-13T02:34:17.322Z,73.70
2017-09-13T02:36:47.843Z,73.60
2017-09-13T02:39:18.351Z,73.50
2017-09-13T02:41:49.084Z,73.50
2017-09-13T02:44:19.600Z,73.70
2017-09-13T02:46:50.163Z,73.70
2017-09-13T02:49:20.889Z,73.70
2017-09-13T02:51:51.493Z,73.70
2017-09-13T02:54:22.025Z,73.70
2017-09-13T02:56:52.484Z,73.60
2017-09-13T02:59:23.156Z,73.50
2017-09-13T03:01:53.554Z,73.80
2017-09-13T03:04:25.177Z,73.70
2017-09-13T03:06:55.640Z,73.60
2017-09-13T03:09:26.138Z,73.70
2017-09-13T03:11:56.802Z,73.70
2017-09-13T03:14:28.292Z,73.40
2017-09-13T03:16:58.796Z,73.40
2017-09-13T03:19:29.281Z,73.60
2017-09-13T03:21:59.844Z,73.60
2017-09-13T03:24:30.583Z,73.50
2017-09-13T03:27:01.196Z,73.60
2017-09-13T03:29:32.588Z,73.60
2017-09-13T03:32:03.265Z,73.50
2017-09-13T03:34:34.491Z,73.30
2017-09-13T03:37:05.070Z,73.30
2017-09-13T03:39:35.680Z,73.30
2017-09-13T03:42:06.284Z,73.50
2017-09-13T03:44:36.750Z,73.70
2017-09-13T03:47:07.248Z,73.60
2017-09-13T03:49:38.003Z,73.60
2017-09-13T03:52:08.612Z,73.30
2017-09-13T03:54:39.084Z,73.60
2017-09-13T03:57:09.701Z,73.50
2017-09-13T03:59:40.228Z,73.40
2017-09-13T04:02:10.633Z,73.60
2017-09-13T04:04:41.416Z,73.60
2017-09-13T04:07:12.066Z,73.60
2017-09-13T04:09:42.728Z,73.60
2017-09-13T04:12:13.173Z,73.30
2017-09-13T04:14:43.724Z,73.60
2017-09-13T04:17:15.086Z,73.60
2017-09-13T04:19:45.768Z,73.70
2017-09-13T04:22:17.169Z,73.70
2017-09-13T04:24:47.584Z,73.80
2017-09-13T04:27:18.094Z,73.90
2017-09-13T04:29:48.618Z,73.90
2017-09-13T04:32:19.264Z,74.00
2017-09-13T04:34:49.894Z,74.00
2017-09-13T04:37:20.441Z,73.80
2017-09-13T04:39:50.949Z,74.10
2017-09-13T04:42:21.468Z,74.10
2017-09-13T04:44:52.650Z,74.50
2017-09-13T04:47:23.082Z,74.50
2017-09-13T04:49:53.888Z,74.40
2017-09-13T04:52:24.504Z,74.10
2017-09-13T04:54:55.031Z,74.10
2017-09-13T04:57:25.780Z,74.10
2017-09-13T04:59:56.325Z,74.00
2017-09-13T05:02:27.661Z,74.10
2017-09-13T05:04:58.503Z,74.10
2017-09-13T05:07:28.881Z,74.20
2017-09-13T05:09:59.764Z,74.10
2017-09-13T05:12:31.098Z,74.40
2017-09-13T05:15:01.560Z,74.40
2017-09-13T05:17:32.237Z,74.40
2017-09-13T05:20:02.936Z,74.40
2017-09-13T05:22:33.563Z,74.50
2017-09-13T05:25:04.091Z,74.50
2017-09-13T05:27:37.511Z,74.50
2017-09-13T05:30:08.718Z,74.50
2017-09-13T05:32:39.209Z,74.50
2017-09-13T05:35:09.944Z,74.80
2017-09-13T05:37:40.481Z,74.60
2017-09-13T05:40:11.330Z,74.70
2017-09-13T05:42:41.957Z,74.80
2017-09-13T05:45:12.489Z,74.70
2017-09-13T05:47:43.100Z,74.80
2017-09-13T05:50:13.761Z,74.70
2017-09-13T05:52:44.397Z,74.60
2017-09-13T05:55:15.645Z,74.70
2017-09-13T05:57:46.142Z,74.60
2017-09-13T06:00:16.896Z,74.90
2017-09-13T06:02:47.972Z,75.00
2017-09-13T06:05:18.383Z,75.10
2017-09-13T06:07:48.981Z,75.00
2017-09-13T06:10:19.412Z,74.90
2017-09-13T06:12:50.715Z,75.20
2017-09-13T06:15:21.501Z,75.20
2017-09-13T06:17:52.142Z,75.00
2017-09-13T06:20:22.592Z,75.10
2017-09-13T06:22:53.124Z,75.20
2017-09-13T06:25:23.609Z,75.10
2017-09-13T06:27:54.253Z,75.10
2017-09-13T06:30:24.764Z,75.10
2017-09-13T06:32:56.217Z,75.20
2017-09-13T06:35:26.990Z,75.20
2017-09-13T06:37:57.506Z,75.10
2017-09-13T06:40:28.431Z,75.00
2017-09-13T06:42:59.869Z,75.00
2017-09-13T06:45:31.226Z,75.00
2017-09-13T06:48:01.902Z,75.00
2017-09-13T06:50:32.272Z,75.20
2017-09-13T06:53:02.739Z,75.00
2017-09-13T06:55:33.325Z,75.00
2017-09-13T06:58:03.892Z,75.10
2017-09-13T07:00:35.391Z,75.20
2017-09-13T07:03:05.890Z,75.20
2017-09-13T07:05:36.572Z,75.20
2017-09-13T07:08:07.217Z,75.00
2017-09-13T07:10:38.549Z,75.40
2017-09-13T07:13:09.017Z,75.40
2017-09-13T07:15:39.529Z,75.30
2017-09-13T07:18:10.077Z,75.40
2017-09-13T07:20:40.597Z,75.50
2017-09-13T07:23:11.629Z,75.60
2017-09-13T07:25:42.344Z,75.30
2017-09-13T07:28:13.010Z,75.50
2017-09-13T07:30:43.618Z,75.70
2017-09-13T07:33:14.060Z,75.70
2017-09-13T07:35:44.677Z,76.30
2017-09-13T07:38:15.112Z,75.50
2017-09-13T07:40:45.641Z,75.70
2017-09-13T07:43:16.624Z,75.50
2017-09-13T07:45:47.202Z,75.60
2017-09-13T07:48:17.664Z,75.70
2017-09-13T07:50:48.167Z,75.50
2017-09-13T07:53:18.697Z,75.70
2017-09-13T07:55:49.355Z,75.70
2017-09-13T07:58:19.788Z,75.90
2017-09-13T08:00:50.237Z,75.90
2017-09-13T08:03:20.908Z,75.80
2017-09-13T08:05:51.751Z,75.90
2017-09-13T08:08:22.281Z,76.00
2017-09-13T08:10:52.795Z,75.90
2017-09-13T08:13:23.159Z,76.00
2017-09-13T08:15:53.814Z,76.10
2017-09-13T08:18:24.529Z,76.10
2017-09-13T08:20:55.020Z,76.30
2017-09-13T08:23:25.562Z,76.30
2017-09-13T08:25:56.098Z,76.00
2017-09-13T08:28:26.696Z,77.10
2017-09-13T08:30:57.185Z,76.40
2017-09-13T08:33:27.825Z,76.30
2017-09-13T08:35:58.294Z,76.50
2017-09-13T08:38:28.941Z,76.50
2017-09-13T08:40:59.427Z,77.30
2017-09-13T08:43:30.096Z,76.40
2017-09-13T08:46:00.820Z,76.70
2017-09-13T08:48:32.052Z,76.90
2017-09-13T08:51:02.704Z,76.90
2017-09-13T08:53:33.386Z,77.00
2017-09-13T08:56:04.057Z,77.10
2017-09-13T08:58:34.721Z,76.90
2017-09-13T09:01:05.321Z,77.30
2017-09-13T09:03:35.880Z,78.20
2017-09-13T09:06:07.162Z,77.60
2017-09-13T09:08:37.989Z,77.60
2017-09-13T09:11:08.377Z,77.80
2017-09-13T09:13:38.894Z,77.80
2017-09-13T09:16:09.513Z,77.80
2017-09-13T09:18:39.991Z,77.70
2017-09-13T09:21:10.863Z,78.50
2017-09-13T09:23:41.468Z,78.30
2017-09-13T09:26:12.094Z,79.80
2017-09-13T09:34:41.643Z,80.80
2017-09-13T09:37:13.312Z,80.40
2017-09-13T09:39:43.658Z,80.30
2017-09-13T09:42:13.919Z,80.60
2017-09-13T09:44:44.023Z,80.90
2017-09-13T09:47:14.306Z,80.50
2017-09-13T09:49:44.624Z,80.60
2017-09-13T09:52:15.953Z,80.40
2017-09-13T09:54:46.859Z,80.80
2017-09-13T09:57:17.083Z,80.90
2017-09-13T09:59:47.501Z,80.80
2017-09-13T10:02:17.863Z,81.10
2017-09-13T10:04:48.112Z,81.00
2017-09-13T10:07:18.545Z,81.50
2017-09-13T10:09:49.590Z,81.80
2017-09-13T10:12:20.006Z,81.80
2017-09-13T10:14:51.010Z,82.20
2017-09-13T10:17:21.990Z,82.20
2017-09-13T10:19:52.313Z,82.40
2017-09-13T10:22:22.607Z,82.40
2017-09-13T10:24:52.717Z,82.40
2017-09-13T10:27:22.895Z,84.20
2017-09-13T10:29:53.163Z,83.20
2017-09-13T10:32:23.291Z,82.90
2017-09-13T10:34:53.543Z,82.80
2017-09-13T10:37:24.517Z,82.60
2017-09-13T10:39:55.830Z,82.60
2017-09-13T10:42:26.824Z,83.00
2017-09-13T10:44:57.049Z,83.00
2017-09-13T10:47:27.326Z,82.70
2017-09-13T10:49:58.626Z,83.00
2017-09-13T10:52:29.096Z,82.70
2017-09-13T10:54:59.522Z,82.60
2017-09-13T10:57:29.905Z,82.40
2017-09-13T11:00:00.257Z,82.60
2017-09-13T11:02:30.651Z,82.60
2017-09-13T11:05:02.578Z,82.10
2017-09-13T11:07:32.948Z,82.10
2017-09-13T11:10:03.467Z,82.30
2017-09-13T11:12:34.615Z,82.10
2017-09-13T11:15:05.770Z,82.40
2017-09-13T11:17:36.089Z,82.30
2017-09-13T11:20:06.419Z,82.70
2017-09-13T11:22:36.511Z,82.60
2017-09-13T11:25:06.846Z,82.10
2017-09-13T11:27:37.246Z,81.80
2017-09-13T11:30:07.536Z,81.60
2017-09-13T11:32:37.986Z,81.70
2017-09-13T11:35:08.216Z,81.90
2017-09-13T11:37:38.394Z,81.70
2017-09-13T11:40:08.751Z,81.60
2017-09-13T11:42:39.067Z,81.60
2017-09-13T11:45:09.362Z,81.50
2017-09-13T11:47:39.657Z,81.60
2017-09-13T11:50:09.944Z,81.60
2017-09-13T11:52:40.422Z,81.30
2017-09-13T11:55:10.652Z,81.30
2017-09-13T11:57:41.134Z,81.30
2017-09-13T12:00:12.592Z,81.40
2017-09-13T12:02:42.985Z,81.40
2017-09-13T12:05:13.367Z,82.10
2017-09-13T12:07:43.750Z,83.80
2017-09-13T12:10:14.500Z,84.90
2017-09-13T12:12:44.766Z,85.30
2017-09-13T12:15:15.032Z,85.90
2017-09-13T12:17:45.186Z,85.60
2017-09-13T12:20:15.697Z,85.70
2017-09-13T12:22:46.728Z,85.40
2017-09-13T12:25:17.085Z,85.40
2017-09-13T12:27:47.349Z,85.60
2017-09-13T12:30:17.726Z,84.70
2017-09-13T12:32:50.338Z,85.10
2017-09-13T12:35:21.534Z,85.30
2017-09-13T12:37:53.311Z,85.20
2017-09-13T12:40:23.828Z,84.80
2017-09-13T12:42:54.346Z,85.00
2017-09-13T12:45:25.510Z,84.60
2017-09-13T12:47:56.121Z,84.60
2017-09-13T12:50:27.131Z,84.20
2017-09-13T12:52:57.830Z,84.70
2017-09-13T12:55:28.591Z,84.40
2017-09-13T12:57:59.199Z,84.60
2017-09-13T13:00:29.697Z,85.20
2017-09-13T13:03:01.346Z,82.70
2017-09-13T13:05:31.974Z,82.70
2017-09-13T13:08:02.895Z,82.60
2017-09-13T13:10:34.106Z,82.50
2017-09-13T13:13:05.055Z,82.50
2017-09-13T13:15:35.691Z,83.20
2017-09-13T13:18:06.410Z,82.20
2017-09-13T13:20:37.392Z,82.30
2017-09-13T13:23:08.043Z,82.20
2017-09-13T13:25:38.691Z,82.10
2017-09-13T13:28:09.821Z,82.30
2017-09-13T13:30:40.951Z,82.20
2017-09-13T13:33:11.987Z,82.10
2017-09-13T13:35:42.437Z,82.40
2017-09-13T13:38:12.821Z,82.60
2017-09-13T13:40:43.411Z,82.70
2017-09-13T13:43:14.831Z,82.60
2017-09-13T13:45:46.673Z,82.80
2017-09-13T13:48:18.284Z,82.80
2017-09-13T13:50:48.694Z,82.80
2017-09-13T13:53:19.332Z,83.00
2017-09-13T13:55:50.921Z,82.90
2017-09-13T13:58:21.804Z,82.90
2017-09-13T14:00:53.518Z,83.10
2017-09-13T14:03:25.185Z,83.00
2017-09-13T14:05:56.552Z,82.90
2017-09-13T14:08:33.676Z,82.90
2017-09-13T14:11:07.447Z,82.90
2017-09-13T14:13:39.725Z,82.90
2017-09-13T14:16:11.627Z,83.40
2017-09-13T14:18:42.378Z,83.50
2017-09-13T14:21:13.211Z,83.60
2017-09-13T14:23:44.406Z,83.80
2017-09-13T14:26:16.980Z,84.00
2017-09-13T14:28:50.806Z,83.80
2017-09-13T14:31:22.447Z,83.60
2017-09-13T14:33:55.085Z,83.70
2017-09-13T14:36:27.837Z,84.70
2017-09-13T14:38:59.170Z,86.70
2017-09-13T14:41:29.827Z,87.00
2017-09-13T14:44:00.653Z,87.30
2017-09-13T14:46:31.094Z,87.70
2017-09-13T14:49:01.570Z,88.10
2017-09-13T14:51:32.740Z,87.80
2017-09-13T14:54:03.872Z,87.80
2017-09-13T14:56:34.606Z,87.00
2017-09-13T14:59:05.841Z,87.30
2017-09-13T15:01:36.409Z,86.80
2017-09-13T15:04:07.143Z,86.40
2017-09-13T15:06:38.342Z,86.30
2017-09-13T15:09:08.609Z,86.10
2017-09-13T15:11:39.062Z,86.40
2017-09-13T15:14:09.432Z,85.70
2017-09-13T15:16:39.791Z,85.70
2017-09-13T15:19:10.344Z,85.40
2017-09-13T15:21:41.581Z,85.50
2017-09-13T15:24:13.651Z,85.20
2017-09-13T15:26:44.058Z,85.20
2017-09-13T15:29:14.288Z,85.30
2017-09-13T15:31:44.725Z,85.10
2017-09-13T15:34:15.049Z,85.10
2017-09-13T15:36:46.153Z,85.10
2017-09-13T15:39:16.590Z,85.10
2017-09-13T15:41:46.905Z,85.00
2017-09-13T15:44:17.265Z,84.70
2017-09-13T15:46:47.595Z,85.10
2017-09-13T15:49:18.554Z,84.80
2017-09-13T15:51:48.907Z,84.80
2017-09-13T15:54:19.344Z,84.40
2017-09-13T15:56:49.670Z,84.30
2017-09-13T15:59:19.842Z,84.60
2017-09-13T16:01:50.251Z,84.20
2017-09-13T16:04:20.930Z,83.90
2017-09-13T16:06:51.398Z,84.30
2017-09-13T16:09:21.940Z,83.80
2017-09-13T16:11:52.394Z,83.50
2017-09-13T16:14:22.812Z,83.40
2017-09-13T16:16:53.354Z,83.80
2017-09-13T16:19:23.909Z,83.50
2017-09-13T16:21:54.262Z,83.50
2017-09-13T16:24:24.726Z,83.40
2017-09-13T16:26:55.808Z,83.40
2017-09-13T16:29:26.163Z,83.20
2017-09-13T16:31:56.345Z,83.30
2017-09-13T16:34:26.771Z,83.20
2017-09-13T16:36:57.132Z,82.80
2017-09-13T16:39:27.846Z,83.20
2017-09-13T16:41:58.281Z,83.00
2017-09-13T16:44:28.675Z,82.80
2017-09-13T16:46:58.866Z,82.70
2017-09-13T16:49:29.257Z,82.80
2017-09-13T16:51:59.686Z,82.50
2017-09-13T16:54:30.801Z,82.40
2017-09-13T16:57:01.115Z,82.40
2017-09-13T16:59:31.390Z,82.20
2017-09-13T17:02:01.961Z,82.40
2017-09-13T17:04:38.820Z,82.30
2017-09-13T17:07:09.222Z,82.40
2017-09-13T17:09:39.647Z,82.10
2017-09-13T17:12:09.893Z,82.60
2017-09-13T17:14:40.952Z,82.00
2017-09-13T17:17:11.337Z,81.90
2017-09-13T17:19:41.847Z,81.90
2017-09-13T17:22:12.107Z,81.60
2017-09-13T17:24:42.470Z,82.00
2017-09-13T17:27:12.810Z,81.60
2017-09-13T17:29:43.167Z,81.90
2017-09-13T17:32:13.601Z,81.70
2017-09-13T17:34:44.807Z,81.70
2017-09-13T17:37:15.245Z,81.70
2017-09-13T17:39:45.531Z,81.30
2017-09-13T17:42:16.027Z,80.80
2017-09-13T17:44:46.601Z,81.10
2017-09-13T17:47:17.228Z,81.30
2017-09-13T17:49:47.460Z,81.10
2017-09-13T17:52:17.835Z,81.10
2017-09-13T17:54:48.956Z,80.80
2017-09-13T17:57:19.976Z,80.50
2017-09-13T17:59:50.422Z,80.60
2017-09-13T18:02:21.610Z,81.40
2017-09-13T18:04:51.989Z,80.70
2017-09-13T18:07:22.422Z,80.80
2017-09-13T18:09:52.917Z,80.70
2017-09-13T18:12:23.217Z,81.50
2017-09-13T18:14:53.562Z,80.70
2017-09-13T18:17:23.937Z,80.70
2017-09-13T18:19:54.414Z,80.80
2017-09-13T18:22:25.349Z,80.90
2017-09-13T18:24:55.617Z,80.80
2017-09-13T18:27:26.053Z,80.70
2017-09-13T18:29:56.459Z,80.70
2017-09-13T18:32:27.718Z,80.70
2017-09-13T18:34:58.226Z,80.60
2017-09-13T18:37:28.777Z,80.70
2017-09-13T18:39:59.313Z,80.60
2017-09-13T18:42:29.936Z,80.30
2017-09-13T18:45:00.323Z,80.20
2017-09-13T18:47:30.504Z,80.10
2017-09-13T18:50:02.808Z,79.80
2017-09-13T18:52:33.263Z,79.70
2017-09-13T18:55:03.901Z,79.70
2017-09-13T18:57:34.331Z,79.60
2017-09-13T19:00:04.730Z,79.80
2017-09-13T19:02:35.074Z,79.90
2017-09-13T19:05:06.444Z,79.70
2017-09-13T19:07:37.769Z,79.60
2017-09-13T19:10:08.210Z,79.70
2017-09-13T19:12:39.233Z,79.70
2017-09-13T19:15:09.802Z,79.80
2017-09-13T19:17:40.218Z,79.90
2017-09-13T19:20:10.893Z,79.70
2017-09-13T19:22:41.263Z,79.80
2017-09-13T19:25:11.714Z,79.60
2017-09-13T19:27:42.124Z,79.30
2017-09-13T19:30:12.493Z,79.60
2017-09-13T19:32:45.353Z,79.70
2017-09-13T19:35:15.729Z,79.10
2017-09-13T19:37:46.503Z,79.40
2017-09-13T19:40:16.796Z,79.30
2017-09-13T19:42:47.097Z,79.10
2017-09-13T19:45:17.512Z,79.40
2017-09-13T19:47:47.791Z,79.30
2017-09-13T19:50:18.221Z,79.40
2017-09-13T19:52:48.696Z,79.30
2017-09-13T19:55:18.949Z,79.40
2017-09-13T19:57:49.683Z,77.00
2017-09-13T20:00:19.954Z,77.50
2017-09-13T20:02:51.111Z,78.60
2017-09-13T20:05:21.536Z,78.90
2017-09-13T20:07:51.816Z,78.70
2017-09-13T20:10:22.216Z,79.10
2017-09-13T20:12:52.529Z,79.20
2017-09-13T20:15:22.989Z,78.90
2017-09-13T20:17:53.279Z,79.00
2017-09-13T20:20:23.631Z,78.90
2017-09-13T20:22:54.745Z,79.10
2017-09-13T20:25:25.043Z,79.20
2017-09-13T20:27:55.381Z,78.80
2017-09-13T20:30:25.811Z,78.60
2017-09-13T20:32:56.163Z,78.40
2017-09-13T20:35:26.496Z,78.60
2017-09-13T20:37:56.840Z,78.50
2017-09-13T20:40:27.171Z,78.60
2017-09-13T20:42:57.510Z,78.60
2017-09-13T20:45:27.859Z,78.60
2017-09-13T20:47:58.150Z,78.50
2017-09-13T20:50:28.387Z,78.50
2017-09-13T20:52:58.700Z,78.80
2017-09-13T20:55:29.975Z,78.70
2017-09-13T20:58:00.530Z,78.80
2017-09-13T21:00:32.099Z,78.80
2017-09-13T21:03:02.469Z,78.80
2017-09-13T21:05:32.625Z,78.90
2017-09-13T21:08:03.305Z,78.90
2017-09-13T21:10:34.317Z,79.00
2017-09-13T21:13:04.699Z,79.00
2017-09-13T21:15:35.106Z,79.00
2017-09-13T21:18:06.249Z,78.80
2017-09-13T21:20:36.609Z,78.80
2017-09-13T21:23:06.883Z,79.00
2017-09-13T21:25:37.899Z,78.90
2017-09-13T21:28:08.329Z,78.90
2017-09-13T21:30:38.735Z,79.00
2017-09-13T21:33:09.113Z,78.90
2017-09-13T21:35:39.393Z,78.90
2017-09-13T21:38:10.367Z,78.70
2017-09-13T21:40:41.394Z,78.90
2017-09-13T21:43:11.816Z,78.60
2017-09-13T21:45:42.414Z,78.50
2017-09-13T21:48:12.535Z,78.50
2017-09-13T21:50:42.758Z,79.00
2017-09-13T21:53:13.197Z,78.90
2017-09-13T21:55:44.236Z,78.40
2017-09-13T21:58:14.532Z,78.60
2017-09-13T22:00:44.777Z,78.70
2017-09-13T22:03:15.206Z,78.40
2017-09-13T22:05:45.528Z,78.70
2017-09-13T22:08:15.737Z,78.40
2017-09-13T22:10:45.982Z,78.40
2017-09-13T22:13:16.222Z,78.50
2017-09-13T22:15:46.638Z,78.30
2017-09-13T22:18:16.973Z,78.50
2017-09-13T22:20:47.968Z,78.60
2017-09-13T22:23:18.247Z,78.60
2017-09-13T22:25:49.271Z,78.90
2017-09-13T22:28:20.378Z,79.20
2017-09-13T22:30:50.646Z,79.20
2017-09-13T22:33:21.772Z,79.10
2017-09-13T22:35:52.056Z,79.10
2017-09-13T22:38:22.166Z,79.10
2017-09-13T22:40:52.451Z,79.40
2017-09-13T22:43:22.743Z,79.30
2017-09-13T22:45:52.743Z,79.60
2017-09-13T22:48:23.063Z,79.40
2017-09-13T22:50:53.440Z,79.30
2017-09-13T22:53:24.488Z,79.60
2017-09-13T22:55:54.820Z,79.60
2017-09-13T22:58:25.168Z,79.40
2017-09-13T23:00:55.543Z,79.30
2017-09-13T23:03:25.843Z,79.30
2017-09-13T23:05:56.952Z,79.10
2017-09-13T23:08:27.975Z,79.20
2017-09-13T23:10:58.379Z,79.10
2017-09-13T23:13:28.872Z,79.00
2017-09-13T23:15:59.157Z,79.00
2017-09-13T23:18:32.830Z,79.00
2017-09-13T23:21:03.634Z,79.10
2017-09-13T23:23:33.963Z,78.90
2017-09-13T23:26:04.194Z,79.00
2017-09-13T23:28:34.509Z,78.50
2017-09-13T23:31:04.902Z,78.80
2017-09-13T23:33:35.140Z,78.80
2017-09-13T23:36:06.120Z,78.60
2017-09-13T23:38:36.452Z,78.60
2017-09-13T23:41:06.625Z,78.40
2017-09-13T23:43:36.845Z,78.50
2017-09-13T23:46:07.107Z,78.60
2017-09-13T23:48:37.216Z,78.60
2017-09-13T23:51:07.652Z,78.60
2017-09-13T23:53:37.845Z,78.30
2017-09-13T23:56:08.236Z,78.30
2017-09-13T23:58:38.738Z,78.40
